sensor_id;sensor_type;location;lat;lon;timestamp;pressure;altitude;pressure_sealevel;temperature;humidity
74542;BME280;63015;45.378;20.360;2023-02-01T00:01:08;101110.25;;;2.96;69.08
74542;BME280;63015;45.378;20.360;2023-02-01T00:03:08;101106.81;;;2.95;69.01
74542;BME280;63015;45.378;20.360;2023-02-01T00:05:10;101110.84;;;2.89;68.96
74542;BME280;63015;45.378;20.360;2023-02-01T00:07:10;101113.28;;;2.86;69.21
74542;BME280;63015;45.378;20.360;2023-02-01T00:09:12;101107.25;;;2.85;69.00
74542;BME280;63015;45.378;20.360;2023-02-01T00:11:12;101108.22;;;2.87;69.24
74542;BME280;63015;45.378;20.360;2023-02-01T00:13:13;101110.78;;;2.87;68.85
74542;BME280;63015;45.378;20.360;2023-02-01T00:15:14;101108.44;;;2.93;69.01
74542;BME280;63015;45.378;20.360;2023-02-01T00:17:14;101119.81;;;2.99;68.99
74542;BME280;63015;45.378;20.360;2023-02-01T00:19:15;101120.66;;;2.98;68.96
74542;BME280;63015;45.378;20.360;2023-02-01T00:21:19;101124.09;;;2.98;68.74
74542;BME280;63015;45.378;20.360;2023-02-01T00:23:20;101119.81;;;2.99;68.82
74542;BME280;63015;45.378;20.360;2023-02-01T00:25:20;101122.47;;;3.00;68.97
74542;BME280;63015;45.378;20.360;2023-02-01T00:27:21;101123.22;;;2.98;68.93
74542;BME280;63015;45.378;20.360;2023-02-01T00:29:21;101120.50;;;2.94;68.99
74542;BME280;63015;45.378;20.360;2023-02-01T00:31:22;101121.47;;;2.96;69.06
74542;BME280;63015;45.378;20.360;2023-02-01T00:33:23;101106.75;;;2.94;69.07
74542;BME280;63015;45.378;20.360;2023-02-01T00:35:24;101115.59;;;3.01;68.83
74542;BME280;63015;45.378;20.360;2023-02-01T00:37:24;101098.53;;;3.03;68.86
74542;BME280;63015;45.378;20.360;2023-02-01T00:39:25;101096.94;;;3.06;68.90
74542;BME280;63015;45.378;20.360;2023-02-01T00:41:25;101097.09;;;3.09;68.76
74542;BME280;63015;45.378;20.360;2023-02-01T00:43:26;101097.03;;;3.08;68.96
74542;BME280;63015;45.378;20.360;2023-02-01T00:45:26;101092.81;;;3.10;68.82
74542;BME280;63015;45.378;20.360;2023-02-01T00:47:27;101086.88;;;3.12;68.86
74542;BME280;63015;45.378;20.360;2023-02-01T00:49:28;101079.97;;;3.11;68.85
74542;BME280;63015;45.378;20.360;2023-02-01T00:51:29;101089.53;;;3.14;68.71
74542;BME280;63015;45.378;20.360;2023-02-01T00:53:30;101086.94;;;3.14;68.67
74542;BME280;63015;45.378;20.360;2023-02-01T00:55:30;101080.94;;;3.13;68.81
74542;BME280;63015;45.378;20.360;2023-02-01T00:57:31;101087.03;;;3.16;68.86
74542;BME280;63015;45.378;20.360;2023-02-01T00:59:32;101075.72;;;3.12;68.73
74542;BME280;63015;45.378;20.360;2023-02-01T01:01:32;101074.81;;;3.11;68.83
74542;BME280;63015;45.378;20.360;2023-02-01T01:03:36;101078.28;;;3.12;68.86
74542;BME280;63015;45.378;20.360;2023-02-01T01:05:37;101078.34;;;3.13;68.96
74542;BME280;63015;45.378;20.360;2023-02-01T01:07:38;101067.19;;;3.13;68.83
74542;BME280;63015;45.378;20.360;2023-02-01T01:09:39;101065.47;;;3.13;68.79
74542;BME280;63015;45.378;20.360;2023-02-01T01:11:39;101072.34;;;3.13;68.86
74542;BME280;63015;45.378;20.360;2023-02-01T01:13:41;101069.00;;;3.16;68.76
74542;BME280;63015;45.378;20.360;2023-02-01T01:15:41;101075.88;;;3.17;68.72
74542;BME280;63015;45.378;20.360;2023-02-01T01:17:42;101074.25;;;3.19;68.82
74542;BME280;63015;45.378;20.360;2023-02-01T01:19:42;101073.31;;;3.17;68.79
74542;BME280;63015;45.378;20.360;2023-02-01T01:21:43;101076.09;;;3.21;68.74
74542;BME280;63015;45.378;20.360;2023-02-01T01:23:44;101077.78;;;3.21;68.82
74542;BME280;63015;45.378;20.360;2023-02-01T01:25:46;101080.28;;;3.19;68.82
74542;BME280;63015;45.378;20.360;2023-02-01T01:27:46;101066.44;;;3.16;68.86
74542;BME280;63015;45.378;20.360;2023-02-01T01:29:47;101061.38;;;3.19;68.71
74542;BME280;63015;45.378;20.360;2023-02-01T01:31:47;101060.69;;;3.23;68.76
74542;BME280;63015;45.378;20.360;2023-02-01T01:33:50;101060.69;;;3.23;68.70
74542;BME280;63015;45.378;20.360;2023-02-01T01:35:51;101052.03;;;3.21;68.77
74542;BME280;63015;45.378;20.360;2023-02-01T01:37:52;101050.22;;;3.18;68.64
74542;BME280;63015;45.378;20.360;2023-02-01T01:39:52;101055.22;;;3.15;68.92
74542;BME280;63015;45.378;20.360;2023-02-01T01:41:53;101052.59;;;3.13;68.88
74542;BME280;63015;45.378;20.360;2023-02-01T01:44:01;101049.97;;;3.12;68.93
74542;BME280;63015;45.378;20.360;2023-02-01T01:46:02;101052.66;;;3.15;68.87
74542;BME280;63015;45.378;20.360;2023-02-01T01:48:27;101053.41;;;3.12;68.95
74542;BME280;63015;45.378;20.360;2023-02-01T01:50:36;101052.59;;;3.13;68.83
74542;BME280;63015;45.378;20.360;2023-02-01T01:52:41;101050.06;;;3.15;69.01
74542;BME280;63015;45.378;20.360;2023-02-01T01:54:47;101042.28;;;3.13;68.75
74542;BME280;63015;45.378;20.360;2023-02-01T01:56:52;101037.16;;;3.13;68.94
74542;BME280;63015;45.378;20.360;2023-02-01T01:58:55;101037.16;;;3.13;68.76
74542;BME280;63015;45.378;20.360;2023-02-01T02:00:57;101039.78;;;3.15;68.81
74542;BME280;63015;45.378;20.360;2023-02-01T02:03:00;101035.53;;;3.16;68.76
74542;BME280;63015;45.378;20.360;2023-02-01T02:05:04;101038.09;;;3.16;68.64
74542;BME280;63015;45.378;20.360;2023-02-01T02:07:09;101038.25;;;3.20;68.79
74542;BME280;63015;45.378;20.360;2023-02-01T02:09:12;101039.22;;;3.22;68.68
74542;BME280;63015;45.378;20.360;2023-02-01T02:11:16;101037.50;;;3.23;68.58
74542;BME280;63015;45.378;20.360;2023-02-01T02:13:17;101042.69;;;3.24;68.50
74542;BME280;63015;45.378;20.360;2023-02-01T02:15:18;101041.06;;;3.26;68.56
74542;BME280;63015;45.378;20.360;2023-02-01T02:24:33;101032.53;;;3.27;68.39
74542;BME280;63015;45.378;20.360;2023-02-01T02:37:58;101024.09;;;3.32;68.22
74542;BME280;63015;45.378;20.360;2023-02-01T02:40:25;101020.56;;;3.29;68.23
74542;BME280;63015;45.378;20.360;2023-02-01T02:45:20;101020.38;;;3.23;68.11
74542;BME280;63015;45.378;20.360;2023-02-01T02:47:47;101015.88;;;3.19;68.18
74542;BME280;63015;45.378;20.360;2023-02-01T02:52:31;101019.53;;;3.24;68.25
74542;BME280;63015;45.378;20.360;2023-02-01T02:54:51;101025.56;;;3.25;68.12
74542;BME280;63015;45.378;20.360;2023-02-01T02:56:56;101019.59;;;3.26;68.12
74542;BME280;63015;45.378;20.360;2023-02-01T02:59:20;101031.78;;;3.30;68.20
74542;BME280;63015;45.378;20.360;2023-02-01T03:01:41;101028.31;;;3.29;68.12
74542;BME280;63015;45.378;20.360;2023-02-01T03:04:01;101021.53;;;3.32;68.18
74542;BME280;63015;45.378;20.360;2023-02-01T03:06:14;101018.09;;;3.31;68.07
74542;BME280;63015;45.378;20.360;2023-02-01T03:10:38;101011.97;;;3.29;68.02
74542;BME280;63015;45.378;20.360;2023-02-01T03:12:43;100997.47;;;3.31;67.89
74542;BME280;63015;45.378;20.360;2023-02-01T03:15:03;100994.91;;;3.31;68.02
74542;BME280;63015;45.378;20.360;2023-02-01T03:17:14;100993.25;;;3.33;67.84
74542;BME280;63015;45.378;20.360;2023-02-01T03:19:34;100993.94;;;3.29;67.66
74542;BME280;63015;45.378;20.360;2023-02-01T03:21:49;100983.75;;;3.32;67.85
74542;BME280;63015;45.378;20.360;2023-02-01T03:23:53;100986.28;;;3.31;67.72
74542;BME280;63015;45.378;20.360;2023-02-01T03:25:55;100987.03;;;3.28;67.95
74542;BME280;63015;45.378;20.360;2023-02-01T03:28:04;100977.63;;;3.28;67.75
74542;BME280;63015;45.378;20.360;2023-02-01T03:30:22;100982.78;;;3.28;67.49
74542;BME280;63015;45.378;20.360;2023-02-01T03:32:24;100987.09;;;3.29;67.61
74542;BME280;63015;45.378;20.360;2023-02-01T03:34:25;100979.31;;;3.28;67.66
74542;BME280;63015;45.378;20.360;2023-02-01T03:36:34;100977.72;;;3.32;67.68
74542;BME280;63015;45.378;20.360;2023-02-01T03:38:40;100980.03;;;3.24;67.56
74542;BME280;63015;45.378;20.360;2023-02-01T03:40:52;100982.06;;;3.33;67.40
74542;BME280;63015;45.378;20.360;2023-02-01T03:42:55;100988.84;;;3.31;67.61
74542;BME280;63015;45.378;20.360;2023-02-01T03:47:14;100967.38;;;3.30;67.68
74542;BME280;63015;45.378;20.360;2023-02-01T03:49:22;100960.50;;;3.31;67.79
74542;BME280;63015;45.378;20.360;2023-02-01T03:51:25;100958.69;;;3.28;67.94
74542;BME280;63015;45.378;20.360;2023-02-01T03:53:27;100953.53;;;3.28;67.83
74542;BME280;63015;45.378;20.360;2023-02-01T03:55:31;100962.03;;;3.25;67.86
74542;BME280;63015;45.378;20.360;2023-02-01T03:57:38;100964.66;;;3.27;67.81
74542;BME280;63015;45.378;20.360;2023-02-01T03:59:41;100960.28;;;3.24;67.58
74542;BME280;63015;45.378;20.360;2023-02-01T04:01:42;100969.72;;;3.24;67.69
74542;BME280;63015;45.378;20.360;2023-02-01T04:03:43;100976.78;;;3.29;67.60
74542;BME280;63015;45.378;20.360;2023-02-01T04:05:45;100967.47;;;3.33;67.67
74542;BME280;63015;45.378;20.360;2023-02-01T04:07:45;100977.81;;;3.35;67.60
74542;BME280;63015;45.378;20.360;2023-02-01T04:09:46;100969.28;;;3.36;67.50
74542;BME280;63015;45.378;20.360;2023-02-01T04:11:46;100972.63;;;3.33;67.45
74542;BME280;63015;45.378;20.360;2023-02-01T04:13:47;100978.81;;;3.38;67.60
74542;BME280;63015;45.378;20.360;2023-02-01T04:15:48;100976.25;;;3.38;67.44
74542;BME280;63015;45.378;20.360;2023-02-01T04:17:50;100981.41;;;3.38;67.46
74542;BME280;63015;45.378;20.360;2023-02-01T04:19:50;100986.56;;;3.38;67.47
74542;BME280;63015;45.378;20.360;2023-02-01T04:21:51;100978.78;;;3.37;67.58
74542;BME280;63015;45.378;20.360;2023-02-01T04:23:52;100980.50;;;3.36;67.50
74542;BME280;63015;45.378;20.360;2023-02-01T04:25:53;100975.34;;;3.36;67.56
74542;BME280;63015;45.378;20.360;2023-02-01T04:27:53;100977.91;;;3.36;67.63
74542;BME280;63015;45.378;20.360;2023-02-01T04:29:54;100977.97;;;3.38;67.69
74542;BME280;63015;45.378;20.360;2023-02-01T04:31:55;100972.75;;;3.36;67.73
74542;BME280;63015;45.378;20.360;2023-02-01T04:33:57;100982.00;;;3.31;67.74
74542;BME280;63015;45.378;20.360;2023-02-01T04:36:00;100978.44;;;3.27;67.69
74542;BME280;63015;45.378;20.360;2023-02-01T04:38:01;100972.53;;;3.30;67.61
74542;BME280;63015;45.378;20.360;2023-02-01T04:40:01;100976.72;;;3.28;67.50
74542;BME280;63015;45.378;20.360;2023-02-01T04:42:03;100976.56;;;3.23;66.99
74542;BME280;63015;45.378;20.360;2023-02-01T04:44:04;100984.31;;;3.23;66.64
74542;BME280;63015;45.378;20.360;2023-02-01T04:46:04;100986.16;;;3.27;66.47
74542;BME280;63015;45.378;20.360;2023-02-01T04:48:05;100988.84;;;3.31;65.83
74542;BME280;63015;45.378;20.360;2023-02-01T04:50:06;100986.31;;;3.32;65.18
74542;BME280;63015;45.378;20.360;2023-02-01T04:52:08;100987.47;;;3.39;65.28
74542;BME280;63015;45.378;20.360;2023-02-01T04:54:09;100980.81;;;3.45;65.19
74542;BME280;63015;45.378;20.360;2023-02-01T04:56:11;100975.00;;;3.51;65.09
74542;BME280;63015;45.378;20.360;2023-02-01T04:58:12;100980.09;;;3.50;64.65
74542;BME280;63015;45.378;20.360;2023-02-01T05:00:12;100983.44;;;3.47;63.20
74542;BME280;63015;45.378;20.360;2023-02-01T05:02:13;100987.84;;;3.50;63.57
74542;BME280;63015;45.378;20.360;2023-02-01T05:04:14;100994.72;;;3.49;62.39
74542;BME280;63015;45.378;20.360;2023-02-01T05:06:14;100995.75;;;3.54;63.06
74542;BME280;63015;45.378;20.360;2023-02-01T05:08:15;100998.44;;;3.57;62.67
74542;BME280;63015;45.378;20.360;2023-02-01T05:10:16;100993.22;;;3.56;62.54
74542;BME280;63015;45.378;20.360;2023-02-01T05:12:16;100989.94;;;3.60;62.67
74542;BME280;63015;45.378;20.360;2023-02-01T05:14:36;100997.84;;;3.65;62.58
74542;BME280;63015;45.378;20.360;2023-02-01T05:16:36;101003.81;;;3.64;62.42
74542;BME280;63015;45.378;20.360;2023-02-01T05:18:37;100995.19;;;3.63;62.27
74542;BME280;63015;45.378;20.360;2023-02-01T05:20:37;100993.47;;;3.62;62.48
74542;BME280;63015;45.378;20.360;2023-02-01T05:22:38;100993.66;;;3.68;62.57
74542;BME280;63015;45.378;20.360;2023-02-01T05:24:38;101003.69;;;3.60;61.61
74542;BME280;63015;45.378;20.360;2023-02-01T05:26:40;101019.88;;;3.56;61.96
74542;BME280;63015;45.378;20.360;2023-02-01T05:28:41;101012.63;;;3.46;61.62
74542;BME280;63015;45.378;20.360;2023-02-01T05:30:41;101019.94;;;3.35;61.36
74542;BME280;63015;45.378;20.360;2023-02-01T05:32:42;101017.00;;;3.49;62.12
74542;BME280;63015;45.378;20.360;2023-02-01T05:34:42;101015.31;;;3.49;62.04
74542;BME280;63015;45.378;20.360;2023-02-01T05:36:43;101015.59;;;3.34;62.12
74542;BME280;63015;45.378;20.360;2023-02-01T05:38:44;101012.84;;;3.52;62.29
74542;BME280;63015;45.378;20.360;2023-02-01T05:40:44;101013.09;;;3.58;62.37
74542;BME280;63015;45.378;20.360;2023-02-01T05:42:49;101002.00;;;3.61;62.38
74542;BME280;63015;45.378;20.360;2023-02-01T05:44:50;101014.28;;;3.44;62.20
74542;BME280;63015;45.378;20.360;2023-02-01T05:46:50;101025.69;;;3.28;62.62
74542;BME280;63015;45.378;20.360;2023-02-01T05:48:52;101032.41;;;3.24;62.71
74542;BME280;63015;45.378;20.360;2023-02-01T05:50:53;101033.47;;;3.29;63.06
74542;BME280;63015;45.378;20.360;2023-02-01T05:52:53;101019.13;;;3.36;63.26
74542;BME280;63015;45.378;20.360;2023-02-01T05:54:54;101031.81;;;3.32;63.18
74542;BME280;63015;45.378;20.360;2023-02-01T05:56:54;101034.41;;;3.32;63.09
74542;BME280;63015;45.378;20.360;2023-02-01T05:58:55;101029.00;;;3.25;62.85
74542;BME280;63015;45.378;20.360;2023-02-01T06:00:55;101028.19;;;3.26;63.28
74542;BME280;63015;45.378;20.360;2023-02-01T06:02:56;101031.25;;;3.16;63.94
74542;BME280;63015;45.378;20.360;2023-02-01T06:04:56;101040.88;;;3.22;63.74
74542;BME280;63015;45.378;20.360;2023-02-01T06:06:57;101036.50;;;3.19;63.46
74542;BME280;63015;45.378;20.360;2023-02-01T06:08:57;101039.56;;;3.32;63.40
74542;BME280;63015;45.378;20.360;2023-02-01T06:11:00;101043.19;;;3.37;63.09
74542;BME280;63015;45.378;20.360;2023-02-01T06:13:01;101038.44;;;3.25;62.47
74542;BME280;63015;45.378;20.360;2023-02-01T06:15:03;101037.84;;;3.32;63.00
74542;BME280;63015;45.378;20.360;2023-02-01T06:17:04;101042.38;;;3.38;62.92
74542;BME280;63015;45.378;20.360;2023-02-01T06:19:06;101048.16;;;3.32;62.75
74542;BME280;63015;45.378;20.360;2023-02-01T06:21:07;101057.66;;;3.33;62.86
74542;BME280;63015;45.378;20.360;2023-02-01T06:23:07;101057.41;;;3.27;63.16
74542;BME280;63015;45.378;20.360;2023-02-01T06:25:09;101058.16;;;3.24;63.09
74542;BME280;63015;45.378;20.360;2023-02-01T06:27:10;101062.38;;;3.22;63.54
74542;BME280;63015;45.378;20.360;2023-02-01T06:29:11;101058.88;;;3.20;63.78
74542;BME280;63015;45.378;20.360;2023-02-01T06:31:12;101060.38;;;3.15;63.68
74542;BME280;63015;45.378;20.360;2023-02-01T06:33:13;101064.59;;;3.13;63.95
74542;BME280;63015;45.378;20.360;2023-02-01T06:35:15;101057.09;;;3.19;64.19
74542;BME280;63015;45.378;20.360;2023-02-01T06:37:16;101057.69;;;3.12;63.91
74542;BME280;63015;45.378;20.360;2023-02-01T06:39:17;101063.91;;;3.17;64.11
74542;BME280;63015;45.378;20.360;2023-02-01T06:41:17;101056.94;;;3.15;64.11
74542;BME280;63015;45.378;20.360;2023-02-01T06:43:18;101055.28;;;3.17;64.22
74542;BME280;63015;45.378;20.360;2023-02-01T06:45:18;101060.38;;;3.15;64.34
74542;BME280;63015;45.378;20.360;2023-02-01T06:47:19;101075.22;;;3.00;64.34
74542;BME280;63015;45.378;20.360;2023-02-01T06:49:19;101079.34;;;2.96;64.25
74542;BME280;63015;45.378;20.360;2023-02-01T06:51:25;101068.69;;;3.08;64.11
74542;BME280;63015;45.378;20.360;2023-02-01T06:53:26;101073.97;;;3.11;64.37
74542;BME280;63015;45.378;20.360;2023-02-01T06:55:26;101074.97;;;3.37;63.82
74542;BME280;63015;45.378;20.360;2023-02-01T06:57:27;101073.63;;;3.47;62.93
74542;BME280;63015;45.378;20.360;2023-02-01T06:59:30;101080.44;;;3.68;62.76
74542;BME280;63015;45.378;20.360;2023-02-01T07:01:31;101079.47;;;3.88;62.19
74542;BME280;63015;45.378;20.360;2023-02-01T07:03:31;101083.59;;;3.83;62.07
74542;BME280;63015;45.378;20.360;2023-02-01T07:05:32;101089.69;;;3.85;61.71
74542;BME280;63015;45.378;20.360;2023-02-01T07:07:32;101089.22;;;3.95;61.89
74542;BME280;63015;45.378;20.360;2023-02-01T07:09:33;101085.16;;;4.02;61.92
74542;BME280;63015;45.378;20.360;2023-02-01T07:11:34;101093.88;;;4.06;61.66
74542;BME280;63015;45.378;20.360;2023-02-01T07:13:39;101096.84;;;4.17;61.62
74542;BME280;63015;45.378;20.360;2023-02-01T07:15:40;101095.06;;;4.16;61.35
74542;BME280;63015;45.378;20.360;2023-02-01T07:17:40;101097.22;;;4.03;61.42
74542;BME280;63015;45.378;20.360;2023-02-01T07:19:41;101095.69;;;4.08;61.83
74542;BME280;63015;45.378;20.360;2023-02-01T07:21:41;101097.09;;;4.00;61.75
74542;BME280;63015;45.378;20.360;2023-02-01T07:23:42;101097.31;;;4.06;61.92
74542;BME280;63015;45.378;20.360;2023-02-01T07:25:42;101097.75;;;3.94;61.73
74542;BME280;63015;45.378;20.360;2023-02-01T07:27:43;101102.59;;;3.85;61.50
74542;BME280;63015;45.378;20.360;2023-02-01T07:29:43;101105.00;;;4.05;61.64
74542;BME280;63015;45.378;20.360;2023-02-01T07:31:44;101104.28;;;4.09;61.50
74542;BME280;63015;45.378;20.360;2023-02-01T07:33:45;101104.94;;;4.27;60.72
74542;BME280;63015;45.378;20.360;2023-02-01T07:35:46;101105.03;;;4.29;60.25
74542;BME280;63015;45.378;20.360;2023-02-01T07:37:47;101109.59;;;4.62;60.68
74542;BME280;63015;45.378;20.360;2023-02-01T07:39:47;101103.69;;;4.66;60.32
74542;BME280;63015;45.378;20.360;2023-02-01T07:41:48;101099.94;;;4.82;59.90
74542;BME280;63015;45.378;20.360;2023-02-01T07:43:52;101106.88;;;4.83;59.25
74542;BME280;63015;45.378;20.360;2023-02-01T07:45:54;101107.22;;;4.94;59.41
74542;BME280;63015;45.378;20.360;2023-02-01T07:47:55;101105.13;;;5.09;58.63
74542;BME280;63015;45.378;20.360;2023-02-01T07:49:55;101104.47;;;5.42;58.34
74542;BME280;63015;45.378;20.360;2023-02-01T07:51:56;101095.19;;;5.49;57.33
74542;BME280;63015;45.378;20.360;2023-02-01T07:53:56;101101.56;;;5.60;56.11
74542;BME280;63015;45.378;20.360;2023-02-01T07:55:57;101108.50;;;5.92;56.56
74542;BME280;63015;45.378;20.360;2023-02-01T07:57:58;101108.41;;;5.87;55.97
74542;BME280;63015;45.378;20.360;2023-02-01T07:59:59;101110.13;;;6.17;55.78
74542;BME280;63015;45.378;20.360;2023-02-01T08:02:18;101106.63;;;6.15;55.67
74542;BME280;63015;45.378;20.360;2023-02-01T08:04:18;101102.88;;;6.36;55.70
74542;BME280;63015;45.378;20.360;2023-02-01T08:06:19;101099.41;;;6.35;54.97
74542;BME280;63015;45.378;20.360;2023-02-01T08:08:21;101102.00;;;6.35;55.04
74542;BME280;63015;45.378;20.360;2023-02-01T08:10:21;101097.50;;;6.62;54.74
74542;BME280;63015;45.378;20.360;2023-02-01T08:12:22;101098.47;;;6.65;54.93
74542;BME280;63015;45.378;20.360;2023-02-01T08:14:22;101093.75;;;6.84;54.81
74542;BME280;63015;45.378;20.360;2023-02-01T08:16:24;101092.72;;;7.12;54.41
74542;BME280;63015;45.378;20.360;2023-02-01T08:18:24;101096.28;;;7.17;54.99
74542;BME280;63015;45.378;20.360;2023-02-01T08:20:25;101089.94;;;7.41;55.22
74542;BME280;63015;45.378;20.360;2023-02-01T08:22:31;101082.03;;;7.76;54.97
74542;BME280;63015;45.378;20.360;2023-02-01T08:24:35;101085.44;;;7.73;53.24
74542;BME280;63015;45.378;20.360;2023-02-01T08:26:35;101076.59;;;8.05;53.50
74542;BME280;63015;45.378;20.360;2023-02-01T08:28:38;101077.19;;;8.36;54.47
74542;BME280;63015;45.378;20.360;2023-02-01T08:30:39;101080.84;;;8.46;54.07
74542;BME280;63015;45.378;20.360;2023-02-01T08:32:39;101089.72;;;8.59;53.58
74542;BME280;63015;45.378;20.360;2023-02-01T08:34:40;101088.97;;;8.64;53.29
74542;BME280;63015;45.378;20.360;2023-02-01T08:36:41;101096.94;;;8.74;53.04
74542;BME280;63015;45.378;20.360;2023-02-01T08:38:41;101087.25;;;8.65;52.12
74542;BME280;63015;45.378;20.360;2023-02-01T08:40:42;101087.44;;;8.76;52.42
74542;BME280;63015;45.378;20.360;2023-02-01T08:42:42;101085.72;;;8.76;51.51
74542;BME280;63015;45.378;20.360;2023-02-01T08:44:52;101082.63;;;8.48;52.87
74542;BME280;63015;45.378;20.360;2023-02-01T08:46:52;101081.75;;;8.48;52.61
74542;BME280;63015;45.378;20.360;2023-02-01T08:48:53;101086.97;;;8.49;53.06
74542;BME280;63015;45.378;20.360;2023-02-01T08:50:53;101084.81;;;8.74;53.18
74542;BME280;63015;45.378;20.360;2023-02-01T08:52:55;101091.03;;;8.36;52.80
74542;BME280;63015;45.378;20.360;2023-02-01T08:54:55;101083.78;;;8.18;53.04
74542;BME280;63015;45.378;20.360;2023-02-01T08:56:56;101089.06;;;8.23;53.54
74542;BME280;63015;45.378;20.360;2023-02-01T08:58:56;101088.41;;;8.33;53.79
74542;BME280;63015;45.378;20.360;2023-02-01T09:00:57;101092.56;;;8.27;53.59
74542;BME280;63015;45.378;20.360;2023-02-01T09:02:57;101101.31;;;7.87;53.69
74542;BME280;63015;45.378;20.360;2023-02-01T09:04:58;101101.63;;;8.01;54.35
74542;BME280;63015;45.378;20.360;2023-02-01T09:06:59;101106.41;;;7.84;54.36
74542;BME280;63015;45.378;20.360;2023-02-01T09:08:59;101102.59;;;7.67;54.74
74542;BME280;63015;45.378;20.360;2023-02-01T09:11:05;101108.75;;;7.70;54.81
74542;BME280;63015;45.378;20.360;2023-02-01T09:13:05;101099.88;;;7.61;55.34
74542;BME280;63015;45.378;20.360;2023-02-01T09:15:06;101101.72;;;7.66;55.81
74542;BME280;63015;45.378;20.360;2023-02-01T09:17:07;101100.69;;;7.58;55.59
74542;BME280;63015;45.378;20.360;2023-02-01T09:19:08;101093.50;;;7.86;55.08
74542;BME280;63015;45.378;20.360;2023-02-01T09:21:08;101092.72;;;7.90;54.78
74542;BME280;63015;45.378;20.360;2023-02-01T09:23:09;101095.44;;;7.96;54.95
74542;BME280;63015;45.378;20.360;2023-02-01T09:25:09;101094.06;;;7.72;55.40
74542;BME280;63015;45.378;20.360;2023-02-01T09:27:10;101086.31;;;7.74;55.03
74542;BME280;63015;45.378;20.360;2023-02-01T09:29:10;101084.81;;;7.84;55.48
74542;BME280;63015;45.378;20.360;2023-02-01T09:31:11;101081.41;;;7.86;55.50
74542;BME280;63015;45.378;20.360;2023-02-01T09:33:12;101082.38;;;7.92;55.91
74542;BME280;63015;45.378;20.360;2023-02-01T09:35:12;101084.91;;;7.88;55.95
74542;BME280;63015;45.378;20.360;2023-02-01T09:37:13;101083.28;;;7.94;55.98
74542;BME280;63015;45.378;20.360;2023-02-01T09:39:13;101073.56;;;7.83;55.32
74542;BME280;63015;45.378;20.360;2023-02-01T09:44:37;101063.56;;;8.03;55.86
74542;BME280;63015;45.378;20.360;2023-02-01T09:46:33;101061.88;;;8.04;55.87
74542;BME280;63015;45.378;20.360;2023-02-01T09:48:38;101061.84;;;8.02;55.58
74542;BME280;63015;45.378;20.360;2023-02-01T09:50:53;101062.81;;;8.07;56.07
74542;BME280;63015;45.378;20.360;2023-02-01T09:53:09;101056.72;;;8.07;56.18
74542;BME280;63015;45.378;20.360;2023-02-01T09:55:34;101049.63;;;7.98;56.08
74542;BME280;63015;45.378;20.360;2023-02-01T09:57:49;101042.84;;;8.05;56.34
74542;BME280;63015;45.378;20.360;2023-02-01T09:59:56;101049.72;;;8.03;56.41
74542;BME280;63015;45.378;20.360;2023-02-01T10:02:02;101054.00;;;8.01;56.98
74542;BME280;63015;45.378;20.360;2023-02-01T10:04:12;101056.22;;;7.81;57.71
74542;BME280;63015;45.378;20.360;2023-02-01T10:14:12;101062.22;;;7.78;58.42
74542;BME280;63015;45.378;20.360;2023-02-01T10:20:41;101062.28;;;7.83;58.52
74542;BME280;63015;45.378;20.360;2023-02-01T10:25:23;101067.44;;;7.81;57.44
74542;BME280;63015;45.378;20.360;2023-02-01T10:27:33;101062.13;;;7.75;57.25
74542;BME280;63015;45.378;20.360;2023-02-01T10:29:37;101057.50;;;7.60;57.71
74542;BME280;63015;45.378;20.360;2023-02-01T10:31:39;101048.03;;;7.62;58.29
74542;BME280;63015;45.378;20.360;2023-02-01T10:33:47;101054.38;;;7.77;57.08
74542;BME280;63015;45.378;20.360;2023-02-01T10:35:54;101045.13;;;7.89;56.88
74542;BME280;63015;45.378;20.360;2023-02-01T10:38:01;101046.81;;;7.86;56.77
74542;BME280;63015;45.378;20.360;2023-02-01T10:40:16;101048.72;;;7.96;56.30
74542;BME280;63015;45.378;20.360;2023-02-01T10:42:19;101048.44;;;7.82;55.60
74542;BME280;63015;45.378;20.360;2023-02-01T10:44:25;101050.81;;;7.71;55.28
74542;BME280;63015;45.378;20.360;2023-02-01T10:46:26;101046.66;;;7.80;55.60
74542;BME280;63015;45.378;20.360;2023-02-01T10:48:27;101036.47;;;7.89;55.55
74542;BME280;63015;45.378;20.360;2023-02-01T10:50:48;101044.47;;;8.00;55.88
74542;BME280;63015;45.378;20.360;2023-02-01T10:52:54;101044.06;;;7.80;54.42
74542;BME280;63015;45.378;20.360;2023-02-01T10:57:32;101042.34;;;7.80;53.90
74542;BME280;63015;45.378;20.360;2023-02-01T10:59:33;101038.88;;;7.80;54.38
74542;BME280;63015;45.378;20.360;2023-02-01T11:01:41;101045.03;;;7.85;54.50
74542;BME280;63015;45.378;20.360;2023-02-01T11:03:52;101047.69;;;7.88;53.86
74542;BME280;63015;45.378;20.360;2023-02-01T11:05:55;101045.06;;;7.86;54.17
74542;BME280;63015;45.378;20.360;2023-02-01T11:07:56;101038.66;;;8.12;54.24
74542;BME280;63015;45.378;20.360;2023-02-01T11:09:56;101029.53;;;8.35;54.18
74542;BME280;63015;45.378;20.360;2023-02-01T11:11:59;101029.53;;;8.35;53.67
74542;BME280;63015;45.378;20.360;2023-02-01T11:14:13;101022.69;;;8.39;54.17
74542;BME280;63015;45.378;20.360;2023-02-01T11:16:14;101012.22;;;8.34;53.87
74542;BME280;63015;45.378;20.360;2023-02-01T11:18:19;101013.56;;;8.61;53.75
74542;BME280;63015;45.378;20.360;2023-02-01T11:20:37;101002.91;;;8.46;52.39
74542;BME280;63015;45.378;20.360;2023-02-01T11:22:48;100996.16;;;8.54;52.56
74542;BME280;63015;45.378;20.360;2023-02-01T11:24:53;101000.81;;;8.75;53.16
74542;BME280;63015;45.378;20.360;2023-02-01T11:26:56;100990.06;;;8.53;51.46
74542;BME280;63015;45.378;20.360;2023-02-01T11:29:05;100974.84;;;8.78;51.76
74542;BME280;63015;45.378;20.360;2023-02-01T11:31:12;100975.78;;;8.83;49.99
74542;BME280;63015;45.378;20.360;2023-02-01T11:33:16;100976.47;;;8.68;49.74